Time;durP1;ratioP1;P1;durP2;ratioP2;P2;SDS_P1;SDS_P2;PMS_P1;PMS_P2;Temp;Humidity;BMP_temperature;BMP_pressure;BME280_temperature;BME280_humidity;BME280_pressure;Samples;Min_cycle;Max_cycle;Signal;HPM_P1;HPM_P2
2023/03/21 07:44:06;;;;;;;;;3.25;3.25;;;;;18.09;46.20;101228.94;5047303;28;46115;-75
2023/03/21 07:46:32;;;;;;;;;4.50;2.75;;;;;18.59;47.42;101225.06;5042432;28;45499;-76
2023/03/21 07:48:58;;;;;;;;;2.00;2.00;;;;;19.32;47.50;101220.00;5041550;28;45961;-76
2023/03/21 07:51:23;;;;;;;;;3.00;2.75;;;;;20.16;47.41;101222.84;5047068;28;45573;-76
2023/03/21 07:53:48;;;;;;;;;4.75;2.25;;;;;20.97;47.50;101210.34;5036705;28;46720;-77
2023/03/21 07:56:14;;;;;;;;;3.25;3.25;;;;;21.72;46.94;101208.94;5049870;28;45465;-77
2023/03/21 07:58:40;;;;;;;;;3.25;3.25;;;;;22.36;46.04;101213.72;5044960;28;45326;-77
2023/03/21 08:01:05;;;;;;;;;2.67;2.67;;;;;22.88;45.61;101199.63;5045903;28;45531;-77
2023/03/21 08:03:32;;;;;;;;;1.67;1.67;;;;;23.38;45.20;101192.00;5047495;28;45871;-77
2023/03/21 08:06:00;;;;;;;;;2.67;2.67;;;;;23.84;44.32;101192.81;5049710;28;45547;-74
2023/03/21 08:08:25;;;;;;;;;3.00;3.00;;;;;24.22;44.03;101187.97;5047307;28;45875;-75
2023/03/21 08:10:50;;;;;;;;;3.00;3.00;;;;;24.57;43.32;101186.06;5044524;28;45856;-77
2023/03/21 08:13:16;;;;;;;;;6.33;3.67;;;;;24.89;42.87;101194.50;5038208;28;46430;-78
2023/03/21 08:15:41;;;;;;;;;2.33;2.33;;;;;25.12;42.48;101207.44;5043932;28;45452;-75
2023/03/21 08:18:07;;;;;;;;;0.33;0.33;;;;;25.34;42.16;101232.25;5044415;28;45353;-76
2023/03/21 08:20:33;;;;;;;;;4.00;2.67;;;;;25.52;41.88;101230.22;5041038;28;45443;-77
2023/03/21 08:22:58;;;;;;;;;3.00;2.33;;;;;25.68;41.28;101216.78;5037324;28;45463;-75
2023/03/21 08:25:24;;;;;;;;;2.00;2.00;;;;;25.82;41.18;101224.25;5048821;28;45865;-75
2023/03/21 08:27:50;;;;;;;;;3.00;3.00;;;;;25.95;40.58;101236.47;5050026;28;45662;-76
2023/03/21 08:30:18;;;;;;;;;3.33;3.00;;;;;26.07;40.25;101256.84;5047975;28;45534;-76
2023/03/21 08:32:43;;;;;;;;;2.00;2.00;;;;;26.17;40.24;101253.94;5048337;28;46330;-76
2023/03/21 08:35:11;;;;;;;;;2.00;2.00;;;;;26.25;39.72;101259.41;5049414;28;45364;-76
2023/03/21 08:37:38;;;;;;;;;1.33;1.33;;;;;26.34;39.71;101257.47;5048267;28;45487;-76
2023/03/21 08:40:07;;;;;;;;;2.00;2.00;;;;;26.42;39.18;101260.19;5046403;28;45510;-77
2023/03/21 08:42:32;;;;;;;;;4.00;2.00;;;;;26.50;38.90;101253.84;5049527;28;47275;-77
2023/03/21 08:44:58;;;;;;;;;3.00;3.00;;;;;26.57;39.32;101259.44;5042291;28;45487;-78
2023/03/21 08:47:23;;;;;;;;;2.33;2.33;;;;;26.65;38.33;101255.84;5056005;28;45516;-76
2023/03/21 08:49:48;;;;;;;;;2.00;2.00;;;;;26.69;38.41;101221.78;5045973;28;45507;-78
2023/03/21 08:52:14;;;;;;;;;2.00;2.00;;;;;26.72;38.16;101209.69;5033435;28;45942;-78
2023/03/21 08:54:40;;;;;;;;;2.00;2.00;;;;;26.80;38.37;101188.69;5035809;28;45567;-75
2023/03/21 08:57:07;;;;;;;;;5.67;4.00;;;;;26.86;38.36;101189.00;5016837;28;45408;-76
2023/03/21 08:59:32;;;;;;;;;3.00;3.00;;;;;26.91;38.19;101202.91;5023276;28;45452;-79
2023/03/21 09:01:58;;;;;;;;;3.33;3.00;;;;;26.95;37.65;101220.63;5029382;28;45510;-78
2023/03/21 09:04:24;;;;;;;;;2.33;2.33;;;;;27.02;37.48;101218.03;5025258;28;47873;-78
2023/03/21 09:06:50;;;;;;;;;6.33;3.00;;;;;27.08;37.27;101226.34;5029988;28;45923;-76
2023/03/21 09:09:16;;;;;;;;;3.33;2.00;;;;;27.16;37.54;101232.75;5029877;28;45415;-76
2023/03/21 09:11:42;;;;;;;;;1.00;1.00;;;;;27.22;37.17;101238.31;5046478;28;48084;-77
2023/03/21 09:14:08;;;;;;;;;3.00;3.00;;;;;27.29;37.48;101243.03;5034026;28;45569;-77
2023/03/21 09:16:34;;;;;;;;;2.67;2.00;;;;;27.35;37.29;101243.16;5028944;28;45514;-76
2023/03/21 09:18:59;;;;;;;;;2.33;2.00;;;;;27.43;36.83;101246.84;5033959;28;45572;-76
2023/03/21 09:21:27;;;;;;;;;2.00;2.00;;;;;27.48;37.08;101242.56;5034520;28;45845;-77
2023/03/21 09:23:55;;;;;;;;;2.33;2.33;;;;;27.55;36.98;101241.81;5017184;28;45988;-77
2023/03/21 09:26:22;;;;;;;;;4.33;4.33;;;;;27.58;36.32;101239.56;5033637;28;45483;-77
2023/03/21 09:28:47;;;;;;;;;2.33;2.33;;;;;27.63;36.34;101239.06;5027409;28;47483;-76
2023/03/21 09:31:15;;;;;;;;;2.00;2.00;;;;;27.69;36.55;101242.91;5030033;28;46060;-75
2023/03/21 09:33:42;;;;;;;;;2.00;2.00;;;;;27.69;36.27;101246.50;5023899;28;45682;-76
2023/03/21 09:36:13;;;;;;;;;4.33;2.00;;;;;27.71;35.51;101251.75;5029343;28;45491;-78
2023/03/21 09:38:43;;;;;;;;;3.00;3.00;;;;;27.71;36.16;101246.31;5024150;28;45563;-77
2023/03/21 09:41:35;;;;;;;;;2.67;2.67;;;;;27.73;35.93;101250.53;5031237;28;47194;-77
2023/03/21 09:44:13;;;;;;;;;2.00;2.00;;;;;27.75;35.94;101244.91;5028228;28;45524;-77
2023/03/21 09:46:50;;;;;;;;;1.67;1.67;;;;;27.77;35.48;101250.16;5030159;28;45662;-77
2023/03/21 09:49:20;;;;;;;;;2.00;2.00;;;;;27.79;35.81;101245.38;5029505;28;45564;-77
2023/03/21 09:51:53;;;;;;;;;1.00;1.00;;;;;27.81;35.73;101249.63;5029064;28;47109;-77
2023/03/21 09:54:26;;;;;;;;;2.00;2.00;;;;;27.84;35.57;101241.03;5023367;28;45444;-77
2023/03/21 09:56:57;;;;;;;;;2.33;2.33;;;;;27.87;35.08;101237.94;5030185;28;45504;-76
2023/03/21 09:59:39;;;;;;;;;3.00;2.00;;;;;27.90;35.22;101247.66;5028304;28;45659;-77
2023/03/21 10:02:39;;;;;;;;;3.00;3.00;;;;;27.94;34.72;101242.66;5030647;28;46079;-76
2023/03/21 10:05:17;;;;;;;;;1.67;1.67;;;;;27.96;34.98;101235.16;5029502;28;45646;-77
2023/03/21 10:07:58;;;;;;;;;2.00;2.00;;;;;27.97;35.07;101234.09;5028663;28;45449;-76
2023/03/21 10:10:28;;;;;;;;;2.67;2.67;;;;;27.98;35.05;101235.78;5026690;28;45796;-77
2023/03/21 10:12:55;;;;;;;;;3.00;3.00;;;;;27.99;34.18;101241.06;5030629;28;47276;-77
2023/03/21 10:15:23;;;;;;;;;1.00;1.00;;;;;28.01;34.28;101240.88;5032249;28;45536;-77
2023/03/21 10:17:58;;;;;;;;;3.67;2.00;;;;;28.00;34.05;101237.31;5013943;28;46770;-77
2023/03/21 10:20:28;;;;;;;;;1.00;1.00;;;;;27.99;34.81;101234.75;5001095;28;45579;-75
2023/03/21 10:22:55;;;;;;;;;3.00;2.00;;;;;28.00;34.75;101247.38;5007117;28;46123;-77
2023/03/21 10:25:27;;;;;;;;;5.00;3.00;;;;;27.99;34.59;101253.84;5029913;28;45392;-75
2023/03/21 10:27:52;;;;;;;;;4.00;4.00;;;;;27.97;34.20;101253.22;5044264;28;45885;-75
2023/03/21 10:30:29;;;;;;;;;3.00;3.00;;;;;27.95;34.21;101255.28;5026770;28;45801;-74
2023/03/21 10:32:58;;;;;;;;;6.33;3.67;;;;;27.92;34.16;101258.38;5048370;28;46159;-74
2023/03/21 10:35:23;;;;;;;;;3.00;3.00;;;;;27.90;34.06;101264.00;5033193;28;45474;-75
2023/03/21 10:37:49;;;;;;;;;1.00;1.00;;;;;27.85;34.10;101261.84;5033534;28;45421;-75
2023/03/21 10:40:16;;;;;;;;;1.00;1.00;;;;;27.85;33.73;101263.72;5033982;28;45536;-75
2023/03/21 10:42:42;;;;;;;;;1.67;1.67;;;;;27.80;34.10;101249.81;5025591;28;45456;-76
2023/03/21 10:45:15;;;;;;;;;2.67;2.67;;;;;27.78;33.76;101241.78;5025592;28;45508;-77
2023/03/21 10:47:41;;;;;;;;;3.00;2.00;;;;;27.77;34.08;101231.94;5024087;28;45506;-77
2023/03/21 10:50:14;;;;;;;;;4.00;2.00;;;;;27.77;33.49;101234.66;5037315;28;45603;-77
2023/03/21 10:52:52;;;;;;;;;2.67;2.00;;;;;27.78;33.98;101243.69;5032370;28;47551;-76
2023/03/21 10:55:27;;;;;;;;;1.00;1.00;;;;;27.80;34.16;101241.63;5032578;28;45430;-77
2023/03/21 10:57:58;;;;;;;;;2.33;2.33;;;;;27.78;33.64;101236.34;5024089;28;45685;-77
2023/03/21 11:00:28;;;;;;;;;1.00;1.00;;;;;27.82;33.55;101232.22;5037039;28;45488;-76
2023/03/21 11:02:54;;;;;;;;;3.33;3.33;;;;;27.82;34.06;101243.13;5031159;28;46362;-77
2023/03/21 11:05:38;;;;;;;;;2.33;2.00;;;;;27.84;33.87;101237.50;5032988;28;45693;-77
2023/03/21 11:08:09;;;;;;;;;2.00;2.00;;;;;27.86;33.92;101236.28;5023088;28;45396;-76
2023/03/21 11:10:47;;;;;;;;;2.00;2.00;;;;;27.86;33.94;101224.50;5031594;28;45572;-75
2023/03/21 11:13:31;;;;;;;;;2.67;2.67;;;;;27.91;33.33;101222.06;5026304;28;46921;-75
2023/03/21 11:16:23;;;;;;;;;2.67;2.67;;;;;27.92;33.09;101217.47;5026321;28;45360;-75
2023/03/21 11:18:50;;;;;;;;;1.33;1.33;;;;;27.90;33.49;101220.38;5030829;28;45469;-75
2023/03/21 11:21:16;;;;;;;;;2.00;2.00;;;;;27.91;33.62;101222.06;5032987;28;45519;-75
2023/03/21 11:23:48;;;;;;;;;3.00;3.00;;;;;27.88;33.28;101219.72;5028075;28;46534;-75
2023/03/21 11:26:31;;;;;;;;;2.00;2.00;;;;;27.85;33.50;101220.94;5013565;28;46107;-75
2023/03/21 11:28:57;;;;;;;;;2.67;2.67;;;;;27.84;33.61;101234.75;5022924;28;46382;-75
2023/03/21 11:31:37;;;;;;;;;1.33;1.33;;;;;27.79;33.40;101223.56;5024462;28;45521;-75
2023/03/21 11:34:05;;;;;;;;;4.00;2.00;;;;;27.80;33.18;101219.78;5024948;28;46173;-76
2023/03/21 11:36:35;;;;;;;;;1.67;1.67;;;;;27.82;33.55;101232.22;5032099;28;45837;-75
2023/03/21 11:39:21;;;;;;;;;2.00;2.00;;;;;27.86;32.93;101216.31;5031602;28;45439;-76
2023/03/21 11:41:50;;;;;;;;;3.00;3.00;;;;;27.88;33.46;101219.72;5015950;28;45388;-76
2023/03/21 11:44:27;;;;;;;;;3.33;2.00;;;;;27.89;33.55;101215.94;5041526;28;46289;-76
2023/03/21 11:46:53;;;;;;;;;5.00;2.00;;;;;27.88;32.85;101217.81;5031022;28;45823;-76
2023/03/21 11:49:20;;;;;;;;;4.67;2.00;;;;;27.87;33.05;101215.28;5029628;28;45597;-76
2023/03/21 11:51:58;;;;;;;;;2.00;2.00;;;;;27.86;33.25;101216.31;5022647;28;46828;-76
2023/03/21 11:54:37;;;;;;;;;4.00;2.00;;;;;27.83;32.84;101209.34;5023511;28;47624;-76
2023/03/21 11:57:25;;;;;;;;;3.33;3.00;;;;;27.81;32.71;101205.13;5024134;28;45519;-76
2023/03/21 12:00:09;;;;;;;;;3.00;2.00;;;;;27.78;33.05;101209.06;5024441;28;45321;-75
2023/03/21 12:03:05;;;;;;;;;8.00;3.00;;;;;27.77;33.42;101209.25;5025074;28;45588;-77
2023/03/21 12:05:37;;;;;;;;;2.00;2.00;;;;;27.77;32.99;101209.25;5020036;28;45542;-80
2023/03/21 12:08:22;;;;;;;;;4.33;4.00;;;;;27.77;33.11;101214.69;5032143;28;45463;-80
2023/03/21 12:10:57;;;;;;;;;4.00;4.00;;;;;27.76;32.62;101208.41;5023723;28;45498;-80
2023/03/21 12:13:34;;;;;;;;;6.00;3.00;;;;;27.79;32.61;101220.84;5023190;28;45513;-80
2023/03/21 12:16:25;;;;;;;;;3.33;3.00;;;;;27.80;32.74;101214.34;5023082;28;45415;-78
2023/03/21 12:19:00;;;;;;;;;4.33;3.00;;;;;27.81;32.60;101214.16;5031487;28;45557;-78
2023/03/21 12:21:31;;;;;;;;;4.67;4.67;;;;;27.81;33.08;101213.31;5032239;28;45411;-78
2023/03/21 12:24:32;;;;;;;;;2.00;2.00;;;;;27.80;33.15;101214.34;5026899;28;45419;-77
2023/03/21 12:27:15;;;;;;;;;3.33;3.00;;;;;27.77;32.61;101207.38;5030491;28;46003;-78
2023/03/21 12:29:47;;;;;;;;;3.67;2.00;;;;;27.74;33.05;101203.16;5023082;28;45408;-78
2023/03/21 12:32:30;;;;;;;;;4.00;4.00;;;;;27.73;32.74;101197.88;5028922;28;45515;-78
2023/03/21 12:35:10;;;;;;;;;1.67;1.00;;;;;27.73;32.56;101193.28;5031799;28;45586;-77
2023/03/21 12:37:56;;;;;;;;;3.00;3.00;;;;;27.77;33.23;101191.03;5031130;28;46273;-77
2023/03/21 12:40:58;;;;;;;;;3.67;3.67;;;;;27.78;33.03;101184.53;5034103;28;45551;-76
2023/03/21 12:43:32;;;;;;;;;2.00;2.00;;;;;27.80;33.08;101177.03;5033545;28;45682;-77
2023/03/21 12:46:04;;;;;;;;;5.67;2.67;;;;;27.80;32.63;101171.56;5023880;28;45595;-76
2023/03/21 12:48:40;;;;;;;;;3.00;3.00;;;;;27.82;33.03;101174.94;5027538;28;46441;-76
2023/03/21 12:51:11;;;;;;;;;2.67;2.67;;;;;27.83;32.99;101164.88;5026209;28;45698;-77
2023/03/21 12:54:04;;;;;;;;;3.00;3.00;;;;;27.84;32.83;101161.94;5032155;28;45536;-75
2023/03/21 12:56:37;;;;;;;;;5.67;4.67;;;;;27.86;32.43;101161.75;5032081;28;45593;-75
2023/03/21 12:59:19;;;;;;;;;3.00;3.00;;;;;27.86;32.44;101159.91;5027014;28;46961;-77
2023/03/21 13:01:47;;;;;;;;;2.33;2.33;;;;;27.87;32.86;101158.00;5032849;28;45424;-79
2023/03/21 13:04:50;;;;;;;;;3.00;3.00;;;;;27.88;33.05;101155.09;5034030;28;45376;-77
2023/03/21 13:07:18;;;;;;;;;2.67;2.67;;;;;27.89;33.01;101153.22;5033184;28;45507;-77
2023/03/21 13:09:45;;;;;;;;;2.33;2.33;;;;;27.92;32.56;101152.84;5034607;28;46532;-76
2023/03/21 13:12:29;;;;;;;;;2.00;2.00;;;;;27.93;31.82;101156.41;5028745;28;45476;-76
2023/03/21 13:15:05;;;;;;;;;2.67;2.67;;;;;27.94;32.87;101148.03;5026883;28;45670;-76
2023/03/21 13:17:42;;;;;;;;;3.00;3.00;;;;;27.94;32.52;101147.19;5030475;28;45440;-77
2023/03/21 13:20:21;;;;;;;;;3.00;3.00;;;;;27.99;32.34;101144.72;5031923;28;47457;-76
2023/03/21 13:22:46;;;;;;;;;4.00;4.00;;;;;28.02;32.86;101144.38;5031138;28;45345;-76
2023/03/21 13:25:19;;;;;;;;;3.33;3.33;;;;;28.04;32.67;101145.03;5030574;28;46428;-76
2023/03/21 13:27:53;;;;;;;;;3.00;3.00;;;;;28.08;32.61;101142.78;5028238;28;45443;-77
2023/03/21 13:30:28;;;;;;;;;3.00;3.00;;;;;28.12;32.72;101144.09;5029882;28;46028;-77
2023/03/21 13:33:13;;;;;;;;;2.00;2.00;;;;;28.15;32.70;101141.81;5027408;28;45954;-76
2023/03/21 13:35:41;;;;;;;;;3.00;3.00;;;;;28.17;32.21;101141.63;5033025;28;45389;-76
2023/03/21 13:38:18;;;;;;;;;2.33;2.33;;;;;28.19;32.74;101145.00;5031041;28;45424;-75
2023/03/21 13:40:56;;;;;;;;;4.00;3.00;;;;;28.21;32.63;101139.34;5030392;28;46238;-74
2023/03/21 13:43:51;;;;;;;;;3.00;3.00;;;;;28.24;32.63;101141.72;5033110;28;45365;-74
2023/03/21 13:46:25;;;;;;;;;2.00;2.00;;;;;28.28;32.55;101141.16;5018108;28;45433;-75
2023/03/21 13:48:56;;;;;;;;;3.00;3.00;;;;;28.31;32.62;101137.19;5018869;28;45562;-75
2023/03/21 13:51:28;;;;;;;;;2.33;2.33;;;;;28.34;32.78;101133.25;5032263;28;47223;-76
2023/03/21 13:54:00;;;;;;;;;4.33;4.33;;;;;28.38;32.62;101129.09;5028660;28;45498;-75
2023/03/21 13:56:25;;;;;;;;;2.33;2.00;;;;;28.40;32.10;101119.66;5029357;28;45495;-75
2023/03/21 13:58:56;;;;;;;;;2.00;2.00;;;;;28.45;31.97;101124.56;5029461;28;45527;-76
2023/03/21 14:01:38;;;;;;;;;4.00;4.00;;;;;28.47;32.53;101122.47;5029501;28;46964;-75
2023/03/21 14:04:11;;;;;;;;;3.50;3.00;;;;;28.50;32.52;101119.38;5034406;28;45490;-76
2023/03/21 14:06:48;;;;;;;;;2.00;2.00;;;;;28.53;32.30;101121.69;5023497;28;45484;-75
2023/03/21 14:09:32;;;;;;;;;2.00;2.00;;;;;28.56;31.68;101112.28;5033121;28;45547;-76
2023/03/21 14:12:00;;;;;;;;;7.00;2.00;;;;;28.56;32.03;101109.53;5033988;28;45475;-76
2023/03/21 14:14:37;;;;;;;;;3.33;2.33;;;;;28.57;31.86;101110.41;5029003;28;45979;-75
2023/03/21 14:17:14;;;;;;;;;4.00;3.33;;;;;28.58;32.45;101104.75;5032636;28;45707;-75
2023/03/21 14:19:39;;;;;;;;;3.00;3.00;;;;;28.59;31.95;101105.56;5033863;28;45627;-75
2023/03/21 14:22:11;;;;;;;;;2.33;2.33;;;;;28.60;32.51;101107.28;5032990;28;46558;-74
2023/03/21 14:24:37;;;;;;;;;3.00;1.67;;;;;28.58;32.06;101112.94;5026615;28;45524;-75
2023/03/21 14:27:04;;;;;;;;;2.67;2.00;;;;;28.62;32.35;101113.38;5023035;28;45986;-75
2023/03/21 14:29:33;;;;;;;;;1.00;1.00;;;;;28.61;32.53;101120.72;5022675;28;45866;-76
2023/03/21 14:31:59;;;;;;;;;2.00;2.00;;;;;28.60;32.25;101123.69;5032204;28;45524;-75
2023/03/21 14:34:28;;;;;;;;;3.00;2.00;;;;;28.61;32.48;101131.66;5029625;28;45453;-77
2023/03/21 14:36:53;;;;;;;;;2.00;2.00;;;;;28.62;32.03;101133.38;5033769;28;45327;-79
2023/03/21 14:39:25;;;;;;;;;6.33;5.00;;;;;28.61;31.63;101137.09;5023962;28;45543;-76
2023/03/21 14:41:54;;;;;;;;;2.00;2.00;;;;;28.59;32.39;101130.16;5033696;28;45506;-75
2023/03/21 14:44:26;;;;;;;;;4.00;4.00;;;;;28.56;32.56;101136.84;5032521;28;45420;-75
2023/03/21 14:47:31;;;;;;;;;5.00;3.67;;;;;28.57;32.39;101138.53;5019228;28;45519;-75
2023/03/21 14:49:59;;;;;;;;;4.00;3.00;;;;;28.58;32.47;101137.50;5027791;28;45391;-75
2023/03/21 14:52:30;;;;;;;;;3.67;3.67;;;;;28.59;32.45;101131.00;5031917;28;46234;-76
2023/03/21 14:54:56;;;;;;;;;5.00;3.00;;;;;28.61;32.05;101136.28;5031755;28;45459;-75
2023/03/21 14:57:28;;;;;;;;;2.67;2.67;;;;;28.64;31.82;101124.94;5027932;28;45384;-75
2023/03/21 14:59:58;;;;;;;;;2.00;2.00;;;;;28.65;32.04;101124.75;5031017;28;45858;-75
2023/03/21 15:02:33;;;;;;;;;2.33;2.33;;;;;28.66;32.43;101125.63;5031612;28;46924;-74
2023/03/21 15:05:14;;;;;;;;;2.00;2.00;;;;;28.74;32.48;101127.38;5027011;28;45463;-75
2023/03/21 15:07:39;;;;;;;;;3.00;3.00;;;;;28.77;32.39;101114.16;5028446;28;45444;-76
2023/03/21 15:10:16;;;;;;;;;3.67;2.00;;;;;28.82;32.52;101118.19;5033964;28;45416;-76
2023/03/21 15:12:58;;;;;;;;;6.00;2.00;;;;;28.83;32.04;101118.00;5030207;28;45468;-76
2023/03/21 15:15:26;;;;;;;;;3.67;3.33;;;;;28.88;32.21;101109.22;5022686;28;45445;-76
2023/03/21 15:17:54;;;;;;;;;3.00;2.00;;;;;28.92;32.66;101108.69;5033493;28;45916;-76
2023/03/21 15:20:26;;;;;;;;;3.00;3.00;;;;;29.03;32.60;101109.19;5022537;28;45585;-75
2023/03/21 15:22:56;;;;;;;;;2.67;2.67;;;;;29.08;31.99;101112.16;5021853;28;46937;-76
2023/03/21 17:22:13;;;;;;;;;3.00;1.00;;;;;19.33;39.65;101078.22;5071732;27;46442;-76
2023/03/21 17:24:38;;;;;;;;;2.00;2.00;;;;;19.84;40.59;101072.91;5064816;27;45729;-76
2023/03/21 17:27:07;;;;;;;;;4.00;3.00;;;;;20.59;40.83;101077.09;5073117;27;45667;-76
2023/03/21 17:29:32;;;;;;;;;4.00;2.00;;;;;21.44;40.52;101080.03;5069890;27;45365;-75
2023/03/21 17:31:57;;;;;;;;;1.00;1.00;;;;;22.24;40.58;101084.13;5068649;28;46627;-75
2023/03/21 17:34:23;;;;;;;;;2.00;0.67;;;;;22.97;40.03;101073.34;5072793;27;51607;-75
2023/03/21 17:36:48;;;;;;;;;3.00;1.00;;;;;23.60;39.76;101064.31;5059879;27;45567;-75
2023/03/21 17:39:20;;;;;;;;;2.00;1.00;;;;;24.19;39.15;101058.97;5059245;27;45623;-76
2023/03/21 17:41:45;;;;;;;;;2.67;1.67;;;;;24.68;38.87;101068.22;5068734;27;47100;-76
2023/03/21 17:44:10;;;;;;;;;1.00;1.00;;;;;25.12;38.44;101066.19;5065869;28;45395;-76
2023/03/21 17:46:36;;;;;;;;;2.67;1.67;;;;;25.49;38.02;101066.63;5067928;28;45567;-75
2023/03/21 17:49:03;;;;;;;;;2.00;2.00;;;;;25.80;37.85;101060.47;5063018;28;45356;-74
2023/03/21 17:51:29;;;;;;;;;2.00;2.00;;;;;26.07;37.49;101057.44;5057967;27;47837;-75
2023/03/21 17:53:56;;;;;;;;;1.00;1.00;;;;;26.35;37.23;101049.66;5069711;28;45515;-76
2023/03/21 17:56:21;;;;;;;;;1.00;1.00;;;;;26.57;36.90;101055.28;5077385;27;45422;-74
2023/03/21 17:58:47;;;;;;;;;3.00;3.00;;;;;26.75;36.44;101052.25;5069561;27;45609;-73
2023/03/21 18:01:13;;;;;;;;;1.00;1.00;;;;;26.94;36.24;101048.19;5069430;28;46663;-74
2023/03/21 18:03:38;;;;;;;;;1.00;1.00;;;;;27.11;36.51;101050.78;5069646;27;45823;-74
2023/03/21 18:06:04;;;;;;;;;1.00;1.00;;;;;27.26;36.30;101048.03;5072544;27;45523;-76
2023/03/21 18:08:30;;;;;;;;;2.33;1.00;;;;;27.39;35.51;101046.56;5073717;27;45749;-76
2023/03/21 18:10:55;;;;;;;;;0.67;0.67;;;;;27.49;35.70;101052.56;5070268;27;46096;-74
2023/03/21 18:13:20;;;;;;;;;1.00;1.00;;;;;27.58;35.23;101047.88;5061715;27;45438;-75
2023/03/21 18:15:46;;;;;;;;;1.00;1.00;;;;;27.67;35.08;101045.94;5055761;27;45569;-77
2023/03/21 18:18:13;;;;;;;;;2.00;2.00;;;;;27.74;34.81;101050.44;5058274;27;45721;-73
2023/03/21 18:20:38;;;;;;;;;2.33;2.00;;;;;27.82;35.19;101043.16;5064932;27;45478;-75
2023/03/21 18:23:04;;;;;;;;;1.33;0.67;;;;;27.88;35.34;101043.25;5060842;27;51675;-76
2023/03/21 18:25:29;;;;;;;;;1.00;1.00;;;;;27.95;34.50;101053.44;5081344;27;45574;-76
2023/03/21 18:27:55;;;;;;;;;1.00;1.00;;;;;27.99;35.02;101047.38;5080023;27;45666;-77
2023/03/21 18:30:21;;;;;;;;;2.00;2.00;;;;;28.05;35.08;101044.91;5083140;27;46233;-75
2023/03/21 18:32:47;;;;;;;;;4.00;1.00;;;;;28.11;34.75;101049.59;5058760;27;45645;-76
2023/03/21 18:35:15;;;;;;;;;1.00;1.00;;;;;28.16;34.98;101052.63;5065679;27;45548;-75
2023/03/21 18:37:42;;;;;;;;;4.00;2.33;;;;;28.20;34.53;101045.72;5064124;27;45632;-74
2023/03/21 18:40:09;;;;;;;;;2.00;1.67;;;;;28.26;34.20;101046.88;5047827;28;46147;-74
2023/03/21 18:42:35;;;;;;;;;3.33;2.00;;;;;28.28;34.50;101042.06;5065641;27;45476;-75
2023/03/21 18:45:01;;;;;;;;;1.00;1.00;;;;;28.31;33.96;101051.75;5065673;27;45466;-80
2023/03/21 18:47:26;;;;;;;;;3.00;3.00;;;;;28.35;34.31;101047.59;5063723;27;45563;-87
2023/03/21 18:49:51;;;;;;;;;4.33;4.00;;;;;28.37;33.70;101050.97;5060179;27;45539;-82
